Portada
METAR-TAF:

METAR-TAF

Aeroports :

Saga, Japó

latitud: 33-09N, longitud: 130-18E, altitud: 2 m

Observació

L'informe es va fer fa 56 minuts, a les 09:00 UTC
Vent 13 kt del Nord/Nord-Est
Temperatura 10°C
Humitat 46%
Pressió 1024 hPa
Visibilitat 10 km o més
sense núvols per sota de 1500 mi sense presència de cumulonimbus.

METAR: RJFS 270900Z 03013KT CAVOK 10/M01 Q1024

Hora: 18:56 (09:56 UTC)

Pronòstic

L'informe es va fer fa 4 hores i 51 minuts, a les 05:05 UTC
Pronòstic vàlid del 27 a les 06 UTC al 28 a les 12 UTC
Vent 13 kt del Nord-Est
Visibilitat 10 km o més
Escasses núvols a una alçada de 3000 ft
Evolucionant progressivament
l' 28 a les 00 UTC al 28 a les 03 UTC
Vent 11 kt del Est/Sud-Est

TAF: RJFS 270505Z 2706/2812 04013KT 9999 FEW030 BECMG 2800/2803 11011KT

Observacions i pronòstics meteorològics de més de 4000 aeroports (METAR i TAF).

Les estacions disponibles són els punts grocs i vermells al mapa.

Posi el ratolí al punt desitjat per veure el nom de l'estació.

Feu clic per veure les observacions i els pronòstics meteorològics.

Per canviar el mapa: feu clic els botons verds amb una creu de color negre per apropar; al botó verd amb un guió per allunyar la imatge; o en les fletxes verdes per a mapes adjacents.


METAR-TAF: